createdAt,value
2018-03-22T00:00:41.511Z,101901.69
2018-03-22T00:03:10.419Z,101895.54
2018-03-22T00:05:39.460Z,101902.37
2018-03-22T00:08:08.486Z,101923.72
2018-03-22T00:10:37.534Z,101920.29
2018-03-22T00:13:06.402Z,101913.86
2018-03-22T00:15:35.472Z,101928.03
2018-03-22T00:18:04.627Z,101917.09
2018-03-22T00:20:33.510Z,101923.44
2018-03-22T00:23:02.650Z,101931.61
2018-03-22T00:25:31.698Z,101933.14
2018-03-22T00:28:00.937Z,101925.63
2018-03-22T00:30:29.996Z,101937.14
2018-03-22T00:32:58.887Z,101938.43
2018-03-22T00:35:28.939Z,101939.59
2018-03-22T00:37:57.994Z,101948.73
2018-03-22T00:40:26.994Z,101949.47
2018-03-22T00:42:55.980Z,101937.28
2018-03-22T00:45:24.970Z,101945.67
2018-03-22T00:47:53.869Z,101947.30
2018-03-22T00:50:22.837Z,101946.28
2018-03-22T00:52:52.025Z,101935.74
2018-03-22T00:55:20.841Z,101943.34
2018-03-22T00:57:49.866Z,101947.86
2018-03-22T01:00:18.796Z,101948.58
2018-03-22T01:02:47.645Z,101948.77
2018-03-22T01:05:16.699Z,101968.16
2018-03-22T01:07:45.966Z,101975.92
2018-03-22T01:10:14.826Z,101970.75
2018-03-22T01:12:43.698Z,101970.44
2018-03-22T01:15:12.818Z,101980.88
2018-03-22T01:17:41.662Z,101970.31
2018-03-22T01:20:10.615Z,101976.29
2018-03-22T01:22:39.561Z,101967.03
2018-03-22T01:25:08.583Z,101973.45
2018-03-22T01:27:37.544Z,101973.80
2018-03-22T01:33:08.614Z,101967.16
2018-03-22T01:35:37.657Z,101962.20
2018-03-22T01:38:06.704Z,101965.69
2018-03-22T01:40:35.693Z,101954.66
2018-03-22T01:43:04.803Z,101961.95
2018-03-22T01:45:33.833Z,101970.20
2018-03-22T01:48:02.638Z,101980.12
2018-03-22T01:50:31.609Z,101998.02
2018-03-22T01:53:11.984Z,101999.72
2018-03-22T01:55:41.121Z,102010.28
2018-03-22T01:58:10.172Z,102018.17
2018-03-22T02:00:39.268Z,102022.22
2018-03-22T02:03:08.183Z,102020.77
2018-03-22T02:05:37.301Z,102032.45
2018-03-22T02:08:06.343Z,102030.73
2018-03-22T02:10:35.417Z,102039.86
2018-03-22T02:13:04.401Z,102029.75
2018-03-22T02:15:33.642Z,102031.01
2018-03-22T02:18:02.691Z,102030.33
2018-03-22T02:20:31.735Z,102024.55
2018-03-22T02:23:00.910Z,102031.86
2018-03-22T02:25:29.971Z,102031.86
2018-03-22T02:27:59.003Z,102026.03
2018-03-22T02:30:28.097Z,102029.48
2018-03-22T02:32:57.249Z,102027.55
2018-03-22T02:35:26.255Z,102021.12
2018-03-22T02:37:55.389Z,102010.68
2018-03-22T02:40:24.590Z,102014.85
2018-03-22T02:42:53.645Z,102028.64
2018-03-22T02:45:22.791Z,102029.43
2018-03-22T02:47:51.822Z,102023.42
2018-03-22T02:50:20.732Z,102019.45
2018-03-22T02:52:49.957Z,102025.22
2018-03-22T02:55:18.846Z,102038.89
2018-03-22T02:57:47.829Z,102029.52
2018-03-22T03:00:16.723Z,102020.12
2018-03-22T03:02:45.989Z,102019.14
2018-03-22T03:05:15.083Z,102012.69
2018-03-22T03:07:44.322Z,102031.08
2018-03-22T03:10:13.277Z,102020.03
2018-03-22T03:12:42.107Z,102002.55
2018-03-22T03:15:11.126Z,101997.45
2018-03-22T03:17:40.070Z,101996.03
2018-03-22T03:20:09.199Z,101995.89
2018-03-22T03:22:38.182Z,101994.34
2018-03-22T03:25:07.246Z,102003.44
2018-03-22T03:27:36.161Z,102012.96
2018-03-22T03:30:05.587Z,102000.88
2018-03-22T03:32:34.726Z,101998.95
2018-03-22T03:35:04.170Z,101990.61
2018-03-22T03:37:33.258Z,101982.52
2018-03-22T03:40:02.437Z,101988.63
2018-03-22T03:42:31.526Z,101989.55
2018-03-22T03:45:00.531Z,102007.64
2018-03-22T03:47:29.551Z,102019.84
2018-03-22T03:49:58.697Z,102013.94
2018-03-22T03:52:27.589Z,102005.98
2018-03-22T03:54:56.626Z,101996.95
2018-03-22T03:57:25.667Z,101986.72
2018-03-22T03:59:54.883Z,101994.53
2018-03-22T04:02:23.893Z,101996.13
2018-03-22T04:04:52.801Z,101991.27
2018-03-22T04:07:21.711Z,101991.36
2018-03-22T04:09:50.793Z,101996.42
2018-03-22T04:12:19.846Z,101991.20
2018-03-22T04:14:49.154Z,101990.02
2018-03-22T04:17:18.144Z,101995.44
2018-03-22T04:19:46.964Z,102006.28
2018-03-22T04:22:15.895Z,102006.05
2018-03-22T04:24:44.869Z,102008.12
2018-03-22T04:27:13.917Z,102018.10
2018-03-22T04:29:43.062Z,102009.84
2018-03-22T04:32:12.002Z,102006.55
2018-03-22T04:34:40.885Z,102009.55
2018-03-22T04:37:09.982Z,102020.69
2018-03-22T04:39:39.022Z,102018.95
2018-03-22T04:42:08.478Z,102016.63
2018-03-22T04:44:37.487Z,102023.03
2018-03-22T04:47:06.342Z,102024.22
2018-03-22T04:49:35.465Z,102022.75
2018-03-22T04:52:04.657Z,102024.75
2018-03-22T04:54:33.912Z,102021.80
2018-03-22T04:57:02.950Z,102021.22
2018-03-22T04:59:32.919Z,102022.32
2018-03-22T05:02:02.001Z,102010.00
2018-03-22T05:04:30.941Z,102008.02
2018-03-22T05:06:59.907Z,102004.58
2018-03-22T05:09:28.865Z,102002.34
2018-03-22T05:11:57.844Z,102006.48
2018-03-22T05:14:27.333Z,102018.53
2018-03-22T05:16:56.487Z,102022.67
2018-03-22T05:19:25.525Z,102019.15
2018-03-22T05:21:54.725Z,102012.92
2018-03-22T05:24:24.085Z,102020.14
2018-03-22T05:26:53.321Z,102020.48
2018-03-22T05:29:22.153Z,102031.91
2018-03-22T05:31:51.291Z,102027.97
2018-03-22T05:34:20.367Z,102038.31
2018-03-22T05:36:49.305Z,102041.56
2018-03-22T05:39:18.474Z,102039.48
2018-03-22T05:41:47.598Z,102050.11
2018-03-22T05:44:16.491Z,102042.55
2018-03-22T05:46:45.503Z,102046.16
2018-03-22T05:49:14.778Z,102061.39
2018-03-22T05:51:43.829Z,102057.59
2018-03-22T05:54:12.909Z,102062.83
2018-03-22T05:56:41.966Z,102075.36
2018-03-22T05:59:10.873Z,102072.97
2018-03-22T06:01:40.043Z,102058.54
2018-03-22T06:04:09.145Z,102068.84
2018-03-22T06:06:38.181Z,102068.14
2018-03-22T06:09:07.397Z,102069.47
2018-03-22T06:11:36.639Z,102063.65
2018-03-22T06:14:05.680Z,102064.91
2018-03-22T06:16:34.639Z,102062.06
2018-03-22T06:19:03.613Z,102072.72
2018-03-22T06:21:32.723Z,102067.94
2018-03-22T06:24:01.849Z,102060.53
2018-03-22T06:26:31.781Z,102058.09
2018-03-22T06:29:00.617Z,102071.71
2018-03-22T06:31:29.768Z,102068.69
2018-03-22T06:33:58.809Z,102077.83
2018-03-22T06:36:27.911Z,102071.00
2018-03-22T06:38:56.972Z,102081.02
2018-03-22T06:41:25.879Z,102070.35
2018-03-22T06:43:54.820Z,102062.44
2018-03-22T06:46:23.843Z,102059.33
2018-03-22T06:48:52.838Z,102057.69
2018-03-22T06:51:21.781Z,102049.05
2018-03-22T06:53:50.766Z,102049.83
2018-03-22T06:56:19.784Z,102055.45
2018-03-22T06:58:48.733Z,102068.42
2018-03-22T07:01:17.991Z,102053.25
2018-03-22T07:03:47.189Z,102056.30
2018-03-22T07:06:16.182Z,102050.94
2018-03-22T07:08:45.178Z,102064.33
2018-03-22T07:11:14.063Z,102069.72
2018-03-22T07:13:43.002Z,102068.98
2018-03-22T07:16:11.972Z,102066.74
2018-03-22T07:18:40.815Z,102058.48
2018-03-22T07:21:10.086Z,102058.89
2018-03-22T07:23:39.013Z,102064.85
2018-03-22T07:26:08.109Z,102065.47
2018-03-22T07:28:37.232Z,102052.73
2018-03-22T07:31:06.209Z,102054.34
2018-03-22T07:33:35.367Z,102055.20
2018-03-22T07:36:04.353Z,102055.83
2018-03-22T07:38:33.389Z,102057.34
2018-03-22T07:41:02.251Z,102046.59
2018-03-22T07:43:36.797Z,102038.51
2018-03-22T07:46:05.853Z,102029.94
2018-03-22T07:48:34.952Z,102025.55
2018-03-22T07:51:03.889Z,102007.32
2018-03-22T07:53:33.007Z,102012.00
2018-03-22T07:56:02.065Z,101997.73
2018-03-22T07:58:31.391Z,101978.53
2018-03-22T08:01:00.306Z,101975.64
2018-03-22T08:03:29.214Z,101982.20
2018-03-22T08:05:58.473Z,101980.00
2018-03-22T08:08:27.517Z,101962.91
2018-03-22T08:10:56.622Z,101952.12
2018-03-22T08:13:25.758Z,101955.20
2018-03-22T08:15:54.760Z,101957.60
2018-03-22T08:18:23.904Z,101954.09
2018-03-22T08:20:53.073Z,101959.86
2018-03-22T08:23:22.130Z,101967.27
2018-03-22T08:25:51.134Z,101961.83
2018-03-22T08:28:20.525Z,101970.41
2018-03-22T08:30:49.622Z,101973.42
2018-03-22T08:33:18.706Z,101965.90
2018-03-22T08:35:47.913Z,101966.84
2018-03-22T08:38:16.916Z,101963.75
2018-03-22T08:40:46.082Z,101969.63
2018-03-22T08:43:15.202Z,101967.03
2018-03-22T08:45:44.229Z,101969.70
2018-03-22T08:48:13.406Z,101966.90
2018-03-22T08:50:42.701Z,101967.30
2018-03-22T08:53:11.942Z,101965.70
2018-03-22T08:55:41.145Z,101961.19
2018-03-22T08:58:10.381Z,101953.69
2018-03-22T09:00:39.689Z,101950.89
2018-03-22T09:03:08.845Z,101942.27
2018-03-22T09:05:38.092Z,101939.52
2018-03-22T09:08:07.315Z,101925.47
2018-03-22T09:10:36.762Z,101930.16
2018-03-22T09:13:06.185Z,101922.57
2018-03-22T09:15:35.338Z,101918.06
2018-03-22T09:18:04.801Z,101908.37
2018-03-22T09:20:34.082Z,101904.40
2018-03-22T09:23:03.248Z,101890.91
2018-03-22T09:25:32.309Z,101892.28
2018-03-22T09:28:01.587Z,101890.69
2018-03-22T09:30:30.702Z,101891.42
2018-03-22T09:32:59.830Z,101876.28
2018-03-22T09:35:29.289Z,101871.77
2018-03-22T09:37:58.692Z,101868.64
2018-03-22T09:40:27.825Z,101878.09
2018-03-22T09:42:56.905Z,101871.06
2018-03-22T09:45:26.000Z,101884.31
2018-03-22T09:47:55.238Z,101870.41
2018-03-22T09:50:24.648Z,101887.02
2018-03-22T09:52:53.856Z,101903.14
2018-03-22T09:55:23.170Z,101884.72
2018-03-22T09:57:52.302Z,101875.70
2018-03-22T10:00:21.574Z,101872.56
2018-03-22T10:02:50.878Z,101877.91
2018-03-22T10:05:20.118Z,101869.55
2018-03-22T10:07:49.261Z,101859.42
2018-03-22T10:10:18.423Z,101860.50
2018-03-22T10:12:47.615Z,101856.56
2018-03-22T10:15:16.845Z,101859.02
2018-03-22T10:17:45.918Z,101862.08
2018-03-22T10:20:15.199Z,101859.14
2018-03-22T10:22:44.314Z,101861.95
2018-03-22T10:25:13.602Z,101850.50
2018-03-22T10:27:42.601Z,101849.44
2018-03-22T10:30:11.846Z,101849.40
2018-03-22T10:32:40.914Z,101837.42
2018-03-22T10:35:10.418Z,101817.30
2018-03-22T10:37:39.617Z,101817.59
2018-03-22T10:40:08.767Z,101810.19
2018-03-22T10:42:38.010Z,101803.20
2018-03-22T10:45:07.169Z,101800.63
2018-03-22T10:47:36.342Z,101795.02
2018-03-22T10:50:05.677Z,101793.31
2018-03-22T10:52:35.017Z,101772.44
2018-03-22T10:55:04.225Z,101777.45
2018-03-22T10:57:33.271Z,101774.89
2018-03-22T11:00:02.519Z,101761.97
2018-03-22T11:02:37.742Z,101759.17
2018-03-22T11:05:06.848Z,101738.28
2018-03-22T11:07:35.987Z,101737.25
2018-03-22T11:10:05.205Z,101734.91
2018-03-22T11:12:34.373Z,101729.06
2018-03-22T11:15:03.706Z,101712.09
2018-03-22T11:17:32.897Z,101706.37
2018-03-22T11:20:02.146Z,101708.80
2018-03-22T11:22:31.153Z,101699.37
2018-03-22T11:25:00.243Z,101676.48
2018-03-22T11:27:29.500Z,101674.80
2018-03-22T11:29:58.591Z,101667.34
2018-03-22T11:32:28.024Z,101670.36
2018-03-22T11:34:57.393Z,101670.70
2018-03-22T11:37:26.491Z,101665.42
2018-03-22T11:39:55.533Z,101658.25
2018-03-22T11:42:24.791Z,101654.20
2018-03-22T11:44:53.881Z,101644.48
2018-03-22T11:47:23.075Z,101643.19
2018-03-22T11:49:52.393Z,101642.12
2018-03-22T11:52:21.565Z,101634.61
2018-03-22T11:54:51.028Z,101635.12
2018-03-22T11:57:20.284Z,101631.75
2018-03-22T11:59:49.389Z,101625.57
2018-03-22T12:02:18.653Z,101625.83
2018-03-22T12:04:47.925Z,101619.56
2018-03-22T12:07:17.054Z,101610.02
2018-03-22T12:09:46.393Z,101602.75
2018-03-22T12:12:15.478Z,101603.14
2018-03-22T12:14:44.486Z,101609.75
2018-03-22T12:17:13.601Z,101598.77
2018-03-22T12:19:42.846Z,101591.16
2018-03-22T12:22:11.898Z,101593.48
2018-03-22T12:24:40.933Z,101593.48
2018-03-22T12:27:10.148Z,101603.02
2018-03-22T12:29:39.126Z,101593.45
2018-03-22T12:32:08.328Z,101594.20
2018-03-22T12:34:37.390Z,101580.91
2018-03-22T12:37:06.734Z,101587.69
2018-03-22T12:39:35.858Z,101576.73
2018-03-22T12:42:04.910Z,101577.10
2018-03-22T12:44:34.131Z,101584.28
2018-03-22T12:47:03.349Z,101590.08
2018-03-22T12:49:32.550Z,101582.28
2018-03-22T12:52:01.550Z,101587.45
2018-03-22T12:54:30.693Z,101582.22
2018-03-22T12:56:59.789Z,101576.70
2018-03-22T12:59:28.886Z,101568.91
2018-03-22T13:01:58.249Z,101569.37
2018-03-22T13:04:27.511Z,101565.19
2018-03-22T13:06:56.594Z,101555.02
2018-03-22T13:09:26.169Z,101552.79
2018-03-22T13:11:55.751Z,101552.04
2018-03-22T13:14:25.286Z,101549.25
2018-03-22T13:16:54.893Z,101543.95
2018-03-22T13:19:24.049Z,101534.20
2018-03-22T13:21:53.156Z,101536.31
2018-03-22T13:24:22.282Z,101531.04
2018-03-22T13:26:51.602Z,101530.20
2018-03-22T13:29:20.718Z,101532.69
2018-03-22T13:31:49.828Z,101536.66
2018-03-22T13:34:18.999Z,101536.15
2018-03-22T13:36:48.246Z,101529.13
2018-03-22T13:39:17.537Z,101537.38
2018-03-22T13:41:46.696Z,101528.87
2018-03-22T13:44:16.004Z,101529.25
2018-03-22T13:46:45.149Z,101527.49
2018-03-22T13:49:14.238Z,101524.31
2018-03-22T13:51:43.480Z,101529.27
2018-03-22T13:54:12.734Z,101523.70
2018-03-22T13:56:41.731Z,101515.81
2018-03-22T13:59:10.889Z,101518.86
2018-03-22T14:01:40.120Z,101513.05
2018-03-22T14:04:09.045Z,101517.95
2018-03-22T14:06:38.302Z,101505.01
2018-03-22T14:09:07.494Z,101506.82
2018-03-22T14:11:36.692Z,101508.72
2018-03-22T14:14:05.687Z,101512.67
2018-03-22T14:16:34.929Z,101516.22
2018-03-22T14:19:04.203Z,101504.55
2018-03-22T14:21:33.402Z,101505.88
2018-03-22T14:24:02.437Z,101512.19
2018-03-22T14:26:31.439Z,101509.01
2018-03-22T14:29:00.525Z,101512.92
2018-03-22T14:31:29.890Z,101505.34
2018-03-22T14:33:58.925Z,101509.38
2018-03-22T14:36:28.022Z,101505.72
2018-03-22T14:38:57.376Z,101485.98
2018-03-22T14:41:26.437Z,101485.66
2018-03-22T14:43:55.675Z,101493.84
2018-03-22T14:46:25.484Z,101502.90
2018-03-22T14:48:55.137Z,101514.19
2018-03-22T14:51:24.311Z,101511.23
2018-03-22T14:53:53.281Z,101517.45
2018-03-22T14:56:22.673Z,101497.84
2018-03-22T14:58:51.780Z,101479.93
2018-03-22T15:01:20.928Z,101473.09
2018-03-22T15:03:50.425Z,101481.80
2018-03-22T15:06:20.002Z,101473.05
2018-03-22T15:08:49.124Z,101467.11
2018-03-22T15:11:18.246Z,101450.13
2018-03-22T15:13:47.666Z,101441.31
2018-03-22T15:16:16.761Z,101432.16
2018-03-22T15:18:45.814Z,101429.65
2018-03-22T15:21:15.079Z,101416.06
2018-03-22T15:23:44.218Z,101390.56
2018-03-22T15:26:13.318Z,101410.40
2018-03-22T15:28:42.448Z,101415.17
2018-03-22T15:31:11.587Z,101419.26
2018-03-22T15:33:40.817Z,101430.73
2018-03-22T15:36:10.244Z,101399.60
2018-03-22T15:38:39.356Z,101403.02
2018-03-22T15:41:08.502Z,101403.14
2018-03-22T15:43:37.912Z,101408.20
2018-03-22T15:46:07.156Z,101400.00
2018-03-22T15:48:36.144Z,101391.18
2018-03-22T15:51:05.337Z,101404.29
2018-03-22T15:53:34.481Z,101420.80
2018-03-22T15:56:03.488Z,101408.56
2018-03-22T15:58:32.618Z,101407.02
2018-03-22T16:01:01.728Z,101416.50
2018-03-22T16:03:31.123Z,101416.70
2018-03-22T16:06:00.341Z,101418.05
2018-03-22T16:08:29.630Z,101416.55
2018-03-22T16:10:58.793Z,101421.48
2018-03-22T16:13:27.980Z,101399.14
2018-03-22T16:15:57.222Z,101395.34
2018-03-22T16:18:26.268Z,101420.37
2018-03-22T16:20:55.365Z,101418.70
2018-03-22T16:23:24.589Z,101413.44
2018-03-22T16:25:53.851Z,101410.39
2018-03-22T16:28:22.952Z,101415.26
2018-03-22T16:30:51.973Z,101417.32
2018-03-22T16:33:21.254Z,101410.20
2018-03-22T16:35:50.698Z,101403.95
2018-03-22T16:38:19.859Z,101405.56
2018-03-22T16:40:48.955Z,101390.61
2018-03-22T16:43:18.177Z,101384.03
2018-03-22T16:45:47.824Z,101390.80
2018-03-22T16:48:17.045Z,101402.64
2018-03-22T16:50:46.181Z,101390.36
2018-03-22T16:53:15.341Z,101391.77
2018-03-22T16:55:44.407Z,101387.63
2018-03-22T16:58:13.592Z,101397.70
2018-03-22T17:00:42.725Z,101401.91
2018-03-22T17:03:12.034Z,101393.79
2018-03-22T17:05:41.169Z,101407.34
2018-03-22T17:08:10.587Z,101399.40
2018-03-22T17:10:39.570Z,101397.36
2018-03-22T17:13:08.635Z,101402.66
2018-03-22T17:15:37.793Z,101393.06
2018-03-22T17:18:06.745Z,101378.70
2018-03-22T17:20:35.915Z,101361.76
2018-03-22T17:23:04.946Z,101350.95
2018-03-22T17:25:33.961Z,101349.09
2018-03-22T17:28:02.947Z,101340.20
2018-03-22T17:30:31.955Z,101344.01
2018-03-22T17:33:01.054Z,101349.80
2018-03-22T17:35:30.055Z,101359.37
2018-03-22T17:37:59.037Z,101369.30
2018-03-22T17:40:28.139Z,101359.48
2018-03-22T17:42:57.047Z,101344.50
2018-03-22T17:45:26.227Z,101340.69
2018-03-22T17:47:55.337Z,101355.91
2018-03-22T17:50:24.538Z,101347.58
2018-03-22T17:52:53.692Z,101335.06
2018-03-22T17:55:22.663Z,101323.16
2018-03-22T17:57:51.844Z,101313.36
2018-03-22T18:00:20.967Z,101299.77
2018-03-22T18:02:49.943Z,101289.30
2018-03-22T18:05:18.991Z,101296.13
2018-03-22T18:07:48.022Z,101282.52
2018-03-22T18:10:17.055Z,101272.69
2018-03-22T18:12:46.203Z,101283.56
2018-03-22T18:15:15.453Z,101275.42
2018-03-22T18:17:44.600Z,101263.19
2018-03-22T18:20:13.637Z,101247.95
2018-03-22T18:22:42.624Z,101278.08
2018-03-22T18:25:11.844Z,101249.59
2018-03-22T18:27:40.861Z,101240.20
2018-03-22T18:30:09.830Z,101230.71
2018-03-22T18:32:38.894Z,101214.23
2018-03-22T18:35:07.960Z,101219.30
2018-03-22T18:37:36.937Z,101221.47
2018-03-22T18:40:06.190Z,101203.70
2018-03-22T18:42:35.341Z,101208.09
2018-03-22T18:45:04.496Z,101234.59
2018-03-22T18:47:33.561Z,101249.44
2018-03-22T18:50:02.507Z,101252.36
2018-03-22T18:52:31.761Z,101247.55
2018-03-22T18:55:00.927Z,101241.97
2018-03-22T18:57:29.837Z,101242.38
2018-03-22T18:59:58.821Z,101221.20
2018-03-22T19:02:28.018Z,101203.34
2018-03-22T19:04:56.998Z,101201.81
2018-03-22T19:07:26.043Z,101201.47
2018-03-22T19:09:55.139Z,101196.88
2018-03-22T19:12:24.094Z,101191.79
2018-03-22T19:14:53.205Z,101176.37
2018-03-22T19:17:22.289Z,101160.34
2018-03-22T19:19:51.284Z,101154.42
2018-03-22T19:22:20.371Z,101163.13
2018-03-22T19:24:49.506Z,101160.13
2018-03-22T19:27:18.692Z,101161.90
2018-03-22T19:29:47.802Z,101141.62
2018-03-22T19:32:16.999Z,101130.28
2018-03-22T19:34:46.103Z,101118.48
2018-03-22T19:37:15.234Z,101094.66
2018-03-22T19:39:44.395Z,101078.72
2018-03-22T19:42:13.893Z,101063.89
2018-03-22T19:44:43.237Z,101028.61
2018-03-22T19:47:12.222Z,100999.91
2018-03-22T19:49:41.421Z,100976.78
2018-03-22T19:52:10.474Z,100991.95
2018-03-22T19:54:39.782Z,100995.86
2018-03-22T19:57:08.755Z,101016.25
2018-03-22T19:59:37.823Z,100990.02
2018-03-22T20:02:07.149Z,101005.98
2018-03-22T20:04:36.297Z,100998.93
2018-03-22T20:07:05.274Z,100993.73
2018-03-22T20:09:34.542Z,100992.17
2018-03-22T20:12:03.805Z,100975.02
2018-03-22T20:14:33.050Z,100970.84
2018-03-22T20:17:02.367Z,100961.36
2018-03-22T20:19:31.502Z,100969.60
2018-03-22T20:22:00.671Z,100956.23
2018-03-22T20:24:29.869Z,100946.95
2018-03-22T20:26:58.961Z,100953.05
2018-03-22T20:29:28.140Z,100966.14
2018-03-22T20:31:57.325Z,100950.16
2018-03-22T20:34:26.445Z,100943.69
2018-03-22T20:36:55.423Z,100960.49
2018-03-22T20:39:24.731Z,100958.64
2018-03-22T20:41:53.750Z,100967.16
2018-03-22T20:44:22.947Z,100962.16
2018-03-22T20:46:52.239Z,100953.66
2018-03-22T20:49:21.209Z,100958.66
2018-03-22T20:51:50.300Z,100958.08
2018-03-22T20:54:19.495Z,100961.39
2018-03-22T20:56:48.626Z,100939.64
2018-03-22T20:59:17.801Z,100935.83
2018-03-22T21:01:46.907Z,100922.44
2018-03-22T21:04:15.937Z,100922.86
2018-03-22T21:06:45.017Z,100916.00
2018-03-22T21:09:14.061Z,100913.42
2018-03-22T21:11:43.127Z,100889.17
2018-03-22T21:14:12.224Z,100884.73
2018-03-22T21:16:41.357Z,100880.53
2018-03-22T21:19:10.358Z,100871.39
2018-03-22T21:21:39.553Z,100875.67
2018-03-22T21:24:08.705Z,100860.99
2018-03-22T21:26:38.019Z,100853.87
2018-03-22T21:29:07.153Z,100838.52
2018-03-22T21:31:36.433Z,100836.70
2018-03-22T21:34:05.593Z,100817.67
2018-03-22T21:36:34.735Z,100807.06
2018-03-22T21:39:03.803Z,100799.20
2018-03-22T21:41:34.453Z,100783.55
2018-03-22T21:44:14.111Z,100777.34
2018-03-22T21:46:43.319Z,100765.81
2018-03-22T21:49:12.254Z,100763.53
2018-03-22T21:51:41.684Z,100763.19
2018-03-22T21:54:10.581Z,100736.70
2018-03-22T21:56:39.747Z,100718.25
2018-03-22T21:59:08.995Z,100696.05
2018-03-22T22:01:38.241Z,100680.61
2018-03-22T22:04:07.340Z,100690.27
2018-03-22T22:06:36.592Z,100688.77
2018-03-22T22:09:05.734Z,100677.16
2018-03-22T22:11:34.729Z,100671.80
2018-03-22T22:14:03.785Z,100668.53
2018-03-22T22:16:32.732Z,100665.75
2018-03-22T22:19:01.706Z,100663.72
2018-03-22T22:21:30.945Z,100655.04
2018-03-22T22:24:00.012Z,100656.08
2018-03-22T22:26:29.201Z,100640.87
2018-03-22T22:28:58.474Z,100653.35
2018-03-22T22:31:27.597Z,100660.96
2018-03-22T22:33:56.693Z,100650.57
2018-03-22T22:36:26.074Z,100636.09
2018-03-22T22:38:56.027Z,100614.87
2018-03-22T22:41:25.104Z,100607.49
2018-03-22T22:43:54.301Z,100602.77
2018-03-22T22:46:23.461Z,100595.75
2018-03-22T22:48:52.463Z,100583.20
2018-03-22T22:51:21.598Z,100580.63
2018-03-22T22:53:50.545Z,100572.64
2018-03-22T22:56:19.626Z,100570.41
2018-03-22T22:58:49.039Z,100565.30
2018-03-22T23:01:18.286Z,100559.63
2018-03-22T23:03:47.477Z,100564.78
2018-03-22T23:06:16.576Z,100538.75
2018-03-22T23:08:45.573Z,100521.93
2018-03-22T23:11:14.640Z,100514.23
2018-03-22T23:13:43.566Z,100511.59
2018-03-22T23:16:12.755Z,100501.22
2018-03-22T23:18:42.001Z,100485.05
2018-03-22T23:21:22.068Z,100478.78
2018-03-22T23:23:54.283Z,100458.58
2018-03-22T23:26:23.509Z,100457.09
2018-03-22T23:28:52.674Z,100456.74
2018-03-22T23:31:21.880Z,100435.16
2018-03-22T23:33:51.011Z,100421.11
2018-03-22T23:36:19.974Z,100430.63
2018-03-22T23:38:49.501Z,100401.34
2018-03-22T23:41:18.603Z,100428.67
2018-03-22T23:43:47.649Z,100393.20
2018-03-22T23:46:16.896Z,100401.38
2018-03-22T23:48:46.053Z,100393.98
2018-03-22T23:51:14.995Z,100392.95
2018-03-22T23:53:44.038Z,100372.95
2018-03-22T23:56:13.279Z,100373.63
2018-03-22T23:58:42.405Z,100368.90
